Terminal Aerodrome Forecast
Issued by NWS

Home | Current Version | Previous Version | Text Only | Print | Product List | Glossary Off
Versions: 1 2 3 4 5 6 7 8 9 10 11 12 13 14 15 16 17

000
FTUS43 KBIS 211131
TAFDIK
TAF
KDIK 211131Z 2112/2212 17004KT P6SM SKC
     FM211500 29009KT P6SM SCT200
     FM211800 31013KT P6SM SCT100
     FM212100 31015G23KT P6SM BKN080
     FM220200 32008KT P6SM VCSH BKN070
     FM220600 28008KT P6SM BKN060=

USA.gov is the U.S. government's official web portal to all federal, state and local government web resources and services.